メインページ
METAR-TAF:

METAR-TAF

空港 :

松山空港

松山, 日本

緯度: 33-49N, 経度: 132-42E, 海抜: 4m

現時点の気象観測

当レポートは37分前の12:00(UTC)に作成
東/北東の風 3kt、北東から東/南東の間で変化する
気温 20°C
湿度 56%
気圧 1011 hPa
視程10km以上
高度3000ftの雲はほとんどない
高度12000ftの千切れ雲あり

METAR: RJOM 161200Z 07003KT 040V110 9999 FEW030 BKN120 20/11 Q1011

時間: 21:37 (12:37 UTC)

予報

当レポートは1時間30分前の11:07(UTC)に作成
予報は16日の 12時(UTC)から 17日の 18時(UTC)まで有効
東/南東の風 6kt
視程10km以上
高度2500ftの雲はほとんどない
高度5000ftの雲は散在している
16日の 22時(UTC)から 17日の 00時(UTC)まで徐々に
の風 12kt
17日の 09時(UTC)から 17日の 12時(UTC)まで徐々に
東/南東の風 8kt

TAF: RJOM 161107Z 1612/1718 12006KT 9999 FEW025 SCT050 BECMG 1622/1700 35012KT BECMG 1709/1712 12008KT

4,000以上の空港の気象観測と天気予報(METAR報とTAF報)

利用可能な観測所は地図上に黄色い丸と赤い丸で示す。

丸の上にカーソルを重ねると観測所名を参照できる。

次にクリックすると気象観測と天気予報を参照できる。

マップの切り替え:黒色「×」印の緑ボタンをクリックして拡大、「-」印の緑ボタンをクリックして縮小、緑色の三角印をクリックして隣りの地図に切り替え


METAR-TAF: